createdAt,value
2019-02-10T00:00:14.781Z,85.0
2019-02-10T00:01:14.854Z,85.1
2019-02-10T00:02:15.113Z,85.2
2019-02-10T00:03:15.375Z,85.3
2019-02-10T00:04:15.668Z,85.5
2019-02-10T00:05:14.934Z,85.4
2019-02-10T00:06:15.194Z,85.3
2019-02-10T00:07:15.458Z,85.4
2019-02-10T00:08:14.723Z,85.5
2019-02-10T00:09:14.988Z,85.3
2019-02-10T00:10:15.272Z,85.3
2019-02-10T00:11:15.296Z,85.4
2019-02-10T00:12:15.565Z,85.0
2019-02-10T00:13:14.837Z,84.8
2019-02-10T00:14:15.100Z,84.8
2019-02-10T00:15:15.358Z,85.0
2019-02-10T00:16:15.629Z,84.9
2019-02-10T00:17:14.885Z,85.0
2019-02-10T00:18:15.150Z,84.8
2019-02-10T00:19:15.423Z,84.9
2019-02-10T00:20:15.703Z,84.8
2019-02-10T00:21:14.764Z,84.6
2019-02-10T00:22:16.773Z,84.5
2019-02-10T00:23:15.075Z,84.5
2019-02-10T00:24:15.344Z,84.6
2019-02-10T00:25:15.629Z,84.4
2019-02-10T00:26:14.909Z,84.6
2019-02-10T00:27:15.164Z,84.5
2019-02-10T00:28:15.428Z,84.4
2019-02-10T00:29:15.740Z,84.4
2019-02-10T00:30:15.012Z,84.6
2019-02-10T00:31:15.079Z,84.6
2019-02-10T00:32:15.346Z,84.8
2019-02-10T00:33:15.609Z,84.7
2019-02-10T00:34:14.869Z,84.7
2019-02-10T00:35:15.436Z,84.8
2019-02-10T00:36:15.702Z,85.0
2019-02-10T00:37:14.961Z,85.2
2019-02-10T00:38:15.226Z,85.1
2019-02-10T00:39:15.492Z,85.0
2019-02-10T00:40:14.767Z,84.9
2019-02-10T00:41:14.827Z,84.9
2019-02-10T00:42:15.113Z,84.9
2019-02-10T00:43:15.379Z,85.0
2019-02-10T00:44:15.640Z,84.9
2019-02-10T00:45:14.913Z,85.0
2019-02-10T00:46:15.171Z,85.0
2019-02-10T00:47:15.435Z,84.9
2019-02-10T00:48:15.703Z,84.9
2019-02-10T00:49:14.972Z,85.1
2019-02-10T00:50:15.251Z,85.1
2019-02-10T00:51:15.298Z,85.5
2019-02-10T00:52:15.647Z,85.7
2019-02-10T00:53:14.925Z,85.4
2019-02-10T00:54:15.195Z,85.6
2019-02-10T00:55:15.463Z,85.5
2019-02-10T00:56:14.723Z,85.4
2019-02-10T00:57:14.985Z,85.5
2019-02-10T00:58:15.244Z,85.5
2019-02-10T00:59:15.506Z,85.4
2019-02-10T01:00:14.787Z,85.2
2019-02-10T01:01:14.836Z,85.2
2019-02-10T01:02:15.075Z,85.5
2019-02-10T01:03:15.352Z,85.4
2019-02-10T01:04:15.922Z,85.5
2019-02-10T01:05:15.208Z,85.5
2019-02-10T01:06:15.473Z,85.5
2019-02-10T01:07:14.743Z,85.4
2019-02-10T01:08:15.030Z,85.5
2019-02-10T01:09:15.295Z,85.5
2019-02-10T01:10:15.560Z,85.5
2019-02-10T01:11:15.611Z,85.5
2019-02-10T01:12:14.873Z,85.5
2019-02-10T01:13:15.141Z,85.6
2019-02-10T01:14:15.402Z,85.4
2019-02-10T01:15:15.657Z,85.5
2019-02-10T01:16:14.917Z,85.4
2019-02-10T01:17:15.186Z,85.5
2019-02-10T01:18:15.464Z,85.1
2019-02-10T01:19:14.726Z,84.9
2019-02-10T01:20:15.014Z,85.1
2019-02-10T01:21:15.066Z,85.4
2019-02-10T01:22:15.318Z,85.3
2019-02-10T01:23:15.582Z,85.4
2019-02-10T01:24:14.838Z,85.2
2019-02-10T01:25:15.109Z,85.2
2019-02-10T01:26:15.376Z,85.0
2019-02-10T01:27:15.898Z,85.0
2019-02-10T01:28:15.159Z,85.1
2019-02-10T01:29:15.426Z,85.0
2019-02-10T01:30:15.709Z,84.8
2019-02-10T01:31:14.751Z,84.8
2019-02-10T01:32:15.015Z,84.9
2019-02-10T01:33:15.282Z,85.0
2019-02-10T01:34:15.544Z,85.0
2019-02-10T01:35:14.818Z,84.8
2019-02-10T01:36:15.095Z,84.8
2019-02-10T01:37:15.359Z,84.8
2019-02-10T01:38:15.642Z,84.8
2019-02-10T01:39:14.908Z,84.9
2019-02-10T01:40:15.176Z,85.1
2019-02-10T01:41:15.235Z,85.1
2019-02-10T01:42:15.505Z,85.0
2019-02-10T01:43:14.774Z,84.8
2019-02-10T01:44:15.028Z,84.8
2019-02-10T01:45:15.300Z,84.8
2019-02-10T01:46:15.573Z,84.7
2019-02-10T01:47:14.838Z,84.7
2019-02-10T01:48:15.113Z,84.7
2019-02-10T01:49:15.379Z,84.7
2019-02-10T01:50:15.657Z,84.5
2019-02-10T01:51:14.731Z,84.5
2019-02-10T01:52:14.998Z,84.7
2019-02-10T01:53:15.258Z,84.8
2019-02-10T01:54:15.525Z,85.1
2019-02-10T01:55:14.812Z,84.8
2019-02-10T01:56:15.077Z,84.8
2019-02-10T01:57:15.345Z,84.9
2019-02-10T01:58:15.620Z,84.7
2019-02-10T01:59:14.882Z,84.9
2019-02-10T02:00:15.158Z,84.8
2019-02-10T02:01:15.220Z,84.8
2019-02-10T02:02:15.495Z,84.9
2019-02-10T02:03:14.753Z,85.0
2019-02-10T02:04:15.022Z,85.2
2019-02-10T02:05:15.305Z,84.8
2019-02-10T02:06:15.566Z,84.5
2019-02-10T02:07:14.825Z,84.8
2019-02-10T02:08:15.093Z,84.8
2019-02-10T02:09:15.361Z,84.8
2019-02-10T02:10:15.649Z,84.7
2019-02-10T02:11:15.704Z,84.7
2019-02-10T02:12:14.958Z,84.8
2019-02-10T02:13:15.217Z,84.9
2019-02-10T02:14:15.485Z,85.0
2019-02-10T02:15:14.751Z,85.2
2019-02-10T02:16:15.016Z,85.2
2019-02-10T02:17:15.270Z,85.1
2019-02-10T02:18:15.557Z,85.1
2019-02-10T02:19:14.825Z,85.2
2019-02-10T02:20:15.101Z,85.3
2019-02-10T02:21:15.163Z,85.4
2019-02-10T02:22:15.427Z,85.5
2019-02-10T02:23:15.721Z,85.4
2019-02-10T02:24:14.983Z,85.3
2019-02-10T02:25:15.257Z,85.4
2019-02-10T02:26:15.530Z,85.5
2019-02-10T02:27:14.795Z,85.5
2019-02-10T02:28:15.062Z,85.5
2019-02-10T02:29:15.330Z,85.6
2019-02-10T02:30:15.630Z,85.5
2019-02-10T02:31:15.642Z,85.7
2019-02-10T02:32:14.911Z,85.5
2019-02-10T02:33:15.176Z,85.6
2019-02-10T02:34:15.438Z,85.7
2019-02-10T02:35:15.712Z,85.7
2019-02-10T02:36:14.992Z,85.6
2019-02-10T02:37:15.271Z,85.7
2019-02-10T02:38:15.543Z,85.7
2019-02-10T02:39:14.817Z,85.8
2019-02-10T02:40:15.087Z,85.9
2019-02-10T02:41:15.162Z,85.8
2019-02-10T02:42:15.430Z,85.8
2019-02-10T02:43:15.702Z,85.9
2019-02-10T02:44:14.976Z,85.9
2019-02-10T02:45:15.250Z,85.9
2019-02-10T02:46:15.522Z,86.0
2019-02-10T02:47:14.783Z,86.0
2019-02-10T02:48:15.073Z,86.0
2019-02-10T02:49:15.353Z,86.3
2019-02-10T02:50:15.620Z,86.2
2019-02-10T02:51:15.682Z,86.2
2019-02-10T02:52:14.958Z,86.4
2019-02-10T02:53:15.215Z,86.4
2019-02-10T02:54:15.514Z,86.4
2019-02-10T02:55:14.793Z,86.3
2019-02-10T02:56:15.056Z,86.5
2019-02-10T02:57:15.321Z,86.4
2019-02-10T02:58:16.082Z,86.4
2019-02-10T02:59:15.352Z,86.7
2019-02-10T03:00:15.652Z,86.7
2019-02-10T03:01:15.685Z,86.7
2019-02-10T03:02:14.955Z,86.7
2019-02-10T03:03:15.230Z,86.7
2019-02-10T03:04:15.498Z,86.8
2019-02-10T03:05:14.773Z,86.8
2019-02-10T03:06:15.039Z,86.9
2019-02-10T03:07:18.426Z,86.8
2019-02-10T03:08:14.734Z,86.8
2019-02-10T03:09:15.016Z,86.8
2019-02-10T03:10:15.299Z,86.7
2019-02-10T03:11:15.395Z,86.5
2019-02-10T03:12:15.656Z,86.5
2019-02-10T03:13:14.933Z,86.5
2019-02-10T03:14:15.224Z,86.4
2019-02-10T03:15:15.513Z,86.4
2019-02-10T03:16:14.777Z,86.2
2019-02-10T03:17:15.113Z,86.2
2019-02-10T03:18:15.436Z,86.3
2019-02-10T03:19:15.712Z,86.6
2019-02-10T03:20:14.993Z,86.8
2019-02-10T03:21:15.113Z,86.8
2019-02-10T03:22:15.398Z,86.9
2019-02-10T03:23:15.692Z,87.2
2019-02-10T03:24:14.979Z,87.3
2019-02-10T03:25:15.248Z,87.4
2019-02-10T03:26:15.523Z,87.4
2019-02-10T03:27:14.795Z,87.5
2019-02-10T03:28:15.064Z,87.6
2019-02-10T03:29:15.360Z,87.7
2019-02-10T03:30:15.630Z,87.8
2019-02-10T03:31:15.681Z,87.9
2019-02-10T03:32:14.959Z,88.0
2019-02-10T03:33:15.249Z,87.8
2019-02-10T03:34:15.533Z,87.8
2019-02-10T03:35:14.803Z,87.8
2019-02-10T03:36:15.078Z,87.8
2019-02-10T03:37:15.347Z,87.8
2019-02-10T03:38:15.938Z,87.9
2019-02-10T03:39:15.209Z,87.8
2019-02-10T03:40:15.489Z,87.8
2019-02-10T03:41:15.538Z,87.8
2019-02-10T03:42:14.824Z,87.8
2019-02-10T03:43:15.091Z,87.8
2019-02-10T03:44:15.384Z,87.7
2019-02-10T03:45:15.664Z,87.7
2019-02-10T03:46:14.935Z,87.4
2019-02-10T03:47:15.222Z,87.2
2019-02-10T03:48:15.487Z,87.2
2019-02-10T03:49:14.763Z,87.2
2019-02-10T03:50:15.048Z,87.3
2019-02-10T03:51:15.114Z,87.3
2019-02-10T03:52:15.374Z,87.3
2019-02-10T03:53:15.663Z,87.3
2019-02-10T03:54:14.932Z,87.2
2019-02-10T03:55:15.210Z,87.2
2019-02-10T03:56:15.478Z,87.2
2019-02-10T03:57:14.742Z,87.2
2019-02-10T03:58:15.015Z,86.8
2019-02-10T03:59:15.297Z,86.5
2019-02-10T04:00:15.591Z,86.8
2019-02-10T04:01:15.663Z,86.8
2019-02-10T04:02:14.928Z,86.7
2019-02-10T04:03:15.191Z,86.5
2019-02-10T04:04:15.452Z,86.8
2019-02-10T04:05:14.711Z,86.8
2019-02-10T04:06:14.980Z,87.0
2019-02-10T04:07:15.256Z,87.0
2019-02-10T04:08:15.525Z,87.0
2019-02-10T04:09:14.820Z,87.0
2019-02-10T04:10:15.101Z,87.1
2019-02-10T04:11:15.160Z,86.9
2019-02-10T04:12:15.414Z,86.7
2019-02-10T04:13:15.695Z,86.4
2019-02-10T04:14:14.984Z,86.7
2019-02-10T04:15:15.262Z,86.6
2019-02-10T04:16:15.543Z,86.7
2019-02-10T04:17:14.811Z,86.8
2019-02-10T04:18:15.077Z,86.7
2019-02-10T04:19:15.341Z,86.5
2019-02-10T04:20:15.634Z,86.5
2019-02-10T04:21:15.671Z,86.6
2019-02-10T04:22:14.943Z,86.4
2019-02-10T04:23:15.252Z,86.0
2019-02-10T04:24:15.515Z,86.2
2019-02-10T04:25:14.783Z,86.2
2019-02-10T04:26:15.050Z,86.4
2019-02-10T04:27:15.321Z,86.4
2019-02-10T04:28:15.596Z,86.5
2019-02-10T04:29:14.881Z,86.5
2019-02-10T04:30:15.165Z,86.2
2019-02-10T04:31:15.224Z,86.0
2019-02-10T04:32:15.473Z,86.2
2019-02-10T04:33:14.738Z,86.3
2019-02-10T04:34:15.022Z,86.3
2019-02-10T04:35:15.281Z,86.3
2019-02-10T04:36:15.546Z,86.5
2019-02-10T04:37:14.816Z,86.7
2019-02-10T04:38:15.084Z,86.3
2019-02-10T04:39:15.351Z,86.3
2019-02-10T04:40:15.643Z,86.2
2019-02-10T04:41:15.690Z,86.3
2019-02-10T04:42:14.966Z,86.2
2019-02-10T04:43:15.229Z,86.5
2019-02-10T04:44:15.504Z,86.2
2019-02-10T04:45:14.789Z,86.3
2019-02-10T04:46:15.062Z,86.2
2019-02-10T04:47:15.336Z,86.1
2019-02-10T04:48:15.614Z,86.2
2019-02-10T04:49:14.879Z,86.3
2019-02-10T04:50:15.196Z,86.1
2019-02-10T04:51:15.203Z,86.1
2019-02-10T04:52:15.471Z,86.2
2019-02-10T04:53:14.733Z,86.1
2019-02-10T04:54:14.995Z,86.2
2019-02-10T04:55:15.257Z,86.3
2019-02-10T04:56:15.533Z,86.2
2019-02-10T04:57:14.799Z,86.2
2019-02-10T04:58:15.062Z,86.2
2019-02-10T04:59:15.320Z,85.7
2019-02-10T05:00:15.600Z,85.8
2019-02-10T05:01:15.665Z,85.7
2019-02-10T05:02:14.932Z,85.7
2019-02-10T05:03:15.204Z,85.3
2019-02-10T05:04:15.466Z,85.4
2019-02-10T05:05:14.730Z,85.2
2019-02-10T05:06:15.004Z,85.4
2019-02-10T05:07:15.261Z,85.4
2019-02-10T05:08:15.529Z,85.5
2019-02-10T05:09:14.790Z,85.5
2019-02-10T05:10:15.068Z,85.3
2019-02-10T05:11:15.125Z,85.0
2019-02-10T05:12:15.386Z,84.8
2019-02-10T05:13:15.642Z,84.8
2019-02-10T05:14:14.919Z,85.1
2019-02-10T05:15:15.182Z,85.0
2019-02-10T05:16:15.440Z,85.0
2019-02-10T05:17:15.715Z,84.9
2019-02-10T05:18:15.076Z,84.7
2019-02-10T05:19:15.342Z,84.6
2019-02-10T05:20:15.639Z,84.7
2019-02-10T05:21:15.666Z,84.5
2019-02-10T05:22:14.933Z,84.7
2019-02-10T05:23:15.195Z,84.4
2019-02-10T05:24:15.493Z,84.5
2019-02-10T05:25:14.788Z,84.5
2019-02-10T05:26:15.157Z,84.4
2019-02-10T05:27:15.450Z,84.5
2019-02-10T05:28:14.722Z,84.5
2019-02-10T05:29:14.978Z,84.2
2019-02-10T05:30:15.272Z,84.4
2019-02-10T05:31:15.306Z,84.6
2019-02-10T05:32:15.572Z,84.7
2019-02-10T05:33:14.837Z,84.5
2019-02-10T05:34:15.116Z,84.8
2019-02-10T05:35:15.385Z,84.7
2019-02-10T05:36:15.658Z,84.5
2019-02-10T05:37:14.923Z,84.2
2019-02-10T05:38:15.182Z,84.5
2019-02-10T05:39:15.447Z,84.6
2019-02-10T05:40:14.738Z,84.5
2019-02-10T05:41:14.795Z,84.6
2019-02-10T05:42:15.059Z,84.9
2019-02-10T05:43:15.319Z,84.8
2019-02-10T05:44:15.586Z,84.6
2019-02-10T05:45:14.847Z,84.8
2019-02-10T05:46:15.113Z,84.6
2019-02-10T05:47:15.382Z,84.3
2019-02-10T05:48:15.651Z,84.0
2019-02-10T05:49:14.912Z,84.3
2019-02-10T05:50:15.212Z,84.2
2019-02-10T05:51:15.255Z,84.1
2019-02-10T05:52:15.525Z,83.7
2019-02-10T05:53:14.802Z,83.8
2019-02-10T05:54:15.078Z,83.7
2019-02-10T05:55:15.360Z,83.8
2019-02-10T05:56:15.626Z,83.5
2019-02-10T05:57:14.904Z,83.8
2019-02-10T05:58:15.179Z,83.8
2019-02-10T05:59:15.453Z,83.7
2019-02-10T06:00:14.725Z,83.9
2019-02-10T06:01:14.797Z,83.8
2019-02-10T06:02:15.085Z,84.1
2019-02-10T06:03:15.363Z,84.0
2019-02-10T06:04:15.634Z,84.1
2019-02-10T06:05:14.917Z,83.7
2019-02-10T06:06:15.212Z,83.8
2019-02-10T06:07:16.908Z,83.7
2019-02-10T06:08:15.261Z,83.8
2019-02-10T06:09:15.543Z,83.8
2019-02-10T06:10:14.806Z,83.6
2019-02-10T06:11:14.898Z,83.5
2019-02-10T06:12:15.160Z,83.2
2019-02-10T06:13:15.420Z,83.0
2019-02-10T06:14:15.694Z,83.0
2019-02-10T06:15:14.962Z,83.2
2019-02-10T06:16:15.219Z,82.9
2019-02-10T06:17:15.501Z,83.0
2019-02-10T06:18:14.790Z,82.8
2019-02-10T06:19:15.056Z,82.6
2019-02-10T06:20:15.333Z,82.5
2019-02-10T06:21:15.382Z,82.7
2019-02-10T06:22:15.653Z,82.8
2019-02-10T06:23:14.932Z,82.5
2019-02-10T06:24:15.192Z,82.5
2019-02-10T06:25:15.497Z,82.3
2019-02-10T06:26:14.760Z,82.0
2019-02-10T06:27:15.026Z,82.1
2019-02-10T06:28:15.289Z,82.0
2019-02-10T06:29:15.557Z,82.0
2019-02-10T06:30:14.839Z,82.0
2019-02-10T06:31:14.903Z,82.0
2019-02-10T06:32:15.167Z,82.4
2019-02-10T06:33:15.458Z,82.3
2019-02-10T06:34:14.731Z,82.1
2019-02-10T06:35:15.030Z,82.0
2019-02-10T06:36:16.907Z,82.2
2019-02-10T06:37:15.171Z,82.2
2019-02-10T06:38:22.904Z,82.5
2019-02-10T06:39:15.233Z,82.5
2019-02-10T06:40:15.504Z,82.5
2019-02-10T06:41:15.578Z,82.6
2019-02-10T06:42:14.837Z,82.2
2019-02-10T06:43:15.105Z,82.2
2019-02-10T06:44:15.370Z,82.3
2019-02-10T06:45:15.650Z,82.6
2019-02-10T06:46:14.923Z,82.5
2019-02-10T06:47:15.191Z,82.3
2019-02-10T06:48:15.456Z,82.2
2019-02-10T06:49:14.739Z,82.1
2019-02-10T06:50:15.012Z,82.3
2019-02-10T06:51:15.078Z,82.3
2019-02-10T06:52:15.349Z,82.3
2019-02-10T06:53:15.612Z,82.0
2019-02-10T06:54:14.892Z,82.2
2019-02-10T06:55:15.158Z,82.2
2019-02-10T06:56:15.422Z,82.3
2019-02-10T06:57:16.086Z,82.2
2019-02-10T06:58:15.352Z,82.2
2019-02-10T06:59:15.624Z,82.5
2019-02-10T07:00:14.901Z,82.4
2019-02-10T07:01:14.958Z,82.1
2019-02-10T07:02:15.228Z,81.9
2019-02-10T07:03:15.492Z,81.4
2019-02-10T07:04:14.763Z,81.3
2019-02-10T07:05:15.031Z,81.1
2019-02-10T07:06:15.302Z,81.5
2019-02-10T07:07:15.579Z,81.3
2019-02-10T07:08:14.846Z,81.2
2019-02-10T07:09:15.127Z,80.8
2019-02-10T07:10:15.456Z,81.2
2019-02-10T07:11:15.465Z,81.3
2019-02-10T07:12:14.732Z,80.9
2019-02-10T07:13:15.001Z,80.7
2019-02-10T07:14:15.277Z,80.8
2019-02-10T07:15:15.570Z,80.8
2019-02-10T07:16:14.832Z,80.8
2019-02-10T07:17:15.102Z,80.4
2019-02-10T07:18:15.379Z,80.9
2019-02-10T07:19:15.657Z,81.2
2019-02-10T07:20:14.935Z,81.0
2019-02-10T07:21:14.984Z,80.7
2019-02-10T07:22:15.260Z,80.5
2019-02-10T07:23:15.522Z,80.8
2019-02-10T07:24:14.781Z,80.7
2019-02-10T07:25:15.055Z,80.7
2019-02-10T07:26:15.317Z,80.6
2019-02-10T07:27:15.583Z,80.5
2019-02-10T07:28:14.864Z,80.4
2019-02-10T07:29:15.139Z,80.2
2019-02-10T07:30:15.421Z,80.5
2019-02-10T07:31:15.450Z,80.5
2019-02-10T07:32:14.713Z,80.6
2019-02-10T07:33:14.975Z,80.6
2019-02-10T07:34:15.239Z,80.4
2019-02-10T07:35:15.505Z,80.4
2019-02-10T07:36:14.775Z,80.0
2019-02-10T07:37:15.071Z,79.8
2019-02-10T07:38:15.333Z,79.8
2019-02-10T07:39:15.599Z,79.8
2019-02-10T07:40:14.868Z,80.2
2019-02-10T07:41:14.923Z,80.2
2019-02-10T07:42:15.186Z,80.4
2019-02-10T07:43:15.444Z,80.4
2019-02-10T07:44:14.705Z,80.6
2019-02-10T07:45:14.977Z,80.1
2019-02-10T07:46:15.247Z,79.8
2019-02-10T07:47:15.517Z,79.8
2019-02-10T07:48:14.784Z,80.5
2019-02-10T07:49:15.061Z,80.5
2019-02-10T07:50:15.347Z,80.4
2019-02-10T07:51:15.407Z,79.7
2019-02-10T07:52:15.668Z,79.5
2019-02-10T07:53:14.939Z,79.3
2019-02-10T07:54:15.201Z,79.5
2019-02-10T07:55:15.749Z,79.9
2019-02-10T07:56:15.042Z,80.0
2019-02-10T07:57:15.315Z,79.8
2019-02-10T07:58:15.865Z,79.8
2019-02-10T07:59:15.145Z,79.9
2019-02-10T08:00:15.451Z,80.1
2019-02-10T08:01:15.478Z,80.1
2019-02-10T08:02:14.738Z,79.8
2019-02-10T08:03:14.995Z,79.5
2019-02-10T08:04:15.310Z,79.1
2019-02-10T08:05:15.576Z,79.3
2019-02-10T08:06:14.862Z,78.8
2019-02-10T08:07:15.135Z,78.7
2019-02-10T08:08:15.402Z,79.0
2019-02-10T08:09:15.671Z,79.0
2019-02-10T08:10:14.935Z,79.1
2019-02-10T08:11:15.013Z,79.1
2019-02-10T08:12:15.271Z,79.0
2019-02-10T08:13:15.545Z,78.8
2019-02-10T08:14:14.796Z,79.0
2019-02-10T08:15:15.071Z,78.8
2019-02-10T08:16:15.331Z,78.6
2019-02-10T08:17:15.633Z,78.8
2019-02-10T08:18:14.892Z,78.8
2019-02-10T08:19:15.162Z,78.8
2019-02-10T08:20:15.444Z,78.3
2019-02-10T08:21:15.528Z,77.9
2019-02-10T08:22:14.834Z,78.5
2019-02-10T08:23:15.105Z,78.2
2019-02-10T08:24:15.366Z,78.2
2019-02-10T08:25:15.648Z,78.5
2019-02-10T08:26:14.932Z,78.2
2019-02-10T08:27:15.190Z,78.5
2019-02-10T08:28:15.458Z,78.7
2019-02-10T08:29:14.726Z,78.5
2019-02-10T08:30:15.020Z,77.5
2019-02-10T08:31:15.069Z,77.5
2019-02-10T08:32:15.353Z,77.8
2019-02-10T08:33:15.631Z,78.0
2019-02-10T08:34:14.895Z,78.3
2019-02-10T08:35:15.165Z,78.7
2019-02-10T08:36:15.432Z,78.4
2019-02-10T08:37:15.683Z,78.0
2019-02-10T08:38:14.950Z,78.0
2019-02-10T08:39:15.214Z,78.6
2019-02-10T08:40:15.486Z,78.8
2019-02-10T08:41:15.550Z,78.2
2019-02-10T08:42:14.814Z,78.7
2019-02-10T08:43:15.083Z,79.2
2019-02-10T08:44:15.355Z,79.2
2019-02-10T08:45:15.621Z,79.6
2019-02-10T08:46:14.887Z,80.1
2019-02-10T08:47:15.173Z,79.8
2019-02-10T08:48:15.443Z,80.5
2019-02-10T08:49:14.705Z,81.2
2019-02-10T08:50:14.978Z,81.6
2019-02-10T08:51:15.052Z,81.5
2019-02-10T08:52:15.321Z,81.8
2019-02-10T08:53:15.596Z,81.7
2019-02-10T08:54:14.866Z,81.2
2019-02-10T08:55:15.139Z,81.3
2019-02-10T08:56:15.402Z,81.2
2019-02-10T08:57:15.678Z,80.9
2019-02-10T08:58:14.942Z,80.8
2019-02-10T08:59:15.199Z,81.2
2019-02-10T09:00:15.502Z,81.1
2019-02-10T09:01:15.525Z,80.8
2019-02-10T09:02:14.777Z,80.9
2019-02-10T09:03:19.938Z,81.3
2019-02-10T09:04:15.264Z,80.5
2019-02-10T09:05:15.562Z,80.4
2019-02-10T09:06:14.826Z,80.7
2019-02-10T09:07:15.542Z,80.1
2019-02-10T09:08:14.800Z,80.1
2019-02-10T09:09:15.084Z,79.8
2019-02-10T09:10:15.363Z,79.7
2019-02-10T09:11:15.428Z,79.8
2019-02-10T09:12:15.693Z,79.7
2019-02-10T09:13:14.968Z,79.7
2019-02-10T09:14:15.237Z,79.5
2019-02-10T09:15:15.501Z,78.9
2019-02-10T09:16:14.757Z,78.8
2019-02-10T09:17:15.021Z,79.0
2019-02-10T09:18:15.281Z,78.4
2019-02-10T09:19:15.545Z,78.3
2019-02-10T09:20:14.825Z,78.8
2019-02-10T09:21:14.871Z,78.8
2019-02-10T09:22:15.134Z,78.7
2019-02-10T09:23:15.388Z,77.8
2019-02-10T09:24:15.659Z,77.5
2019-02-10T09:25:14.936Z,77.4
2019-02-10T09:26:15.199Z,77.3
2019-02-10T09:27:15.469Z,77.6
2019-02-10T09:28:14.737Z,76.8
2019-02-10T09:29:14.997Z,77.4
2019-02-10T09:30:15.281Z,76.7
2019-02-10T09:31:15.329Z,76.4
2019-02-10T09:32:15.593Z,76.8
2019-02-10T09:33:14.861Z,76.6
2019-02-10T09:34:15.128Z,76.4
2019-02-10T09:35:15.385Z,75.9
2019-02-10T09:36:15.664Z,75.8
2019-02-10T09:37:14.926Z,76.0
2019-02-10T09:38:15.186Z,76.7
2019-02-10T09:39:15.452Z,76.0
2019-02-10T09:40:14.733Z,76.2
2019-02-10T09:41:14.794Z,76.3
2019-02-10T09:42:15.057Z,75.8
2019-02-10T09:43:15.325Z,75.7
2019-02-10T09:44:15.599Z,75.9
2019-02-10T09:45:14.877Z,75.5
2019-02-10T09:46:15.140Z,76.0
2019-02-10T09:47:15.401Z,76.3
2019-02-10T09:48:15.683Z,76.4
2019-02-10T09:49:14.951Z,75.9
2019-02-10T09:50:15.203Z,75.3
2019-02-10T09:51:15.279Z,75.5
2019-02-10T09:52:15.545Z,75.5
2019-02-10T09:53:14.815Z,75.0
2019-02-10T09:54:15.356Z,75.8
2019-02-10T09:55:15.620Z,75.9
2019-02-10T09:56:14.913Z,75.9
2019-02-10T09:57:15.171Z,75.3
2019-02-10T09:58:15.438Z,75.5
2019-02-10T09:59:14.696Z,75.7
2019-02-10T10:00:15.007Z,75.5
2019-02-10T10:01:15.021Z,75.3
2019-02-10T10:02:15.281Z,75.3
2019-02-10T10:03:15.562Z,74.9
2019-02-10T10:04:14.846Z,75.5
2019-02-10T10:05:15.130Z,75.5
2019-02-10T10:06:15.394Z,75.2
2019-02-10T10:07:15.648Z,75.7
2019-02-10T10:08:14.915Z,75.8
2019-02-10T10:09:19.771Z,75.6
2019-02-10T10:10:15.131Z,76.1
2019-02-10T10:11:15.202Z,75.5
2019-02-10T10:12:15.467Z,75.8
2019-02-10T10:13:14.733Z,76.0
2019-02-10T10:14:15.012Z,76.3
2019-02-10T10:15:15.288Z,76.7
2019-02-10T10:16:15.562Z,76.3
2019-02-10T10:17:14.824Z,76.8
2019-02-10T10:18:15.083Z,76.5
2019-02-10T10:19:15.344Z,76.5
2019-02-10T10:20:15.620Z,75.8
2019-02-10T10:21:15.676Z,76.6
2019-02-10T10:22:14.952Z,76.5
2019-02-10T10:23:15.215Z,76.8
2019-02-10T10:24:15.477Z,76.4
2019-02-10T10:25:14.744Z,76.2
2019-02-10T10:26:14.999Z,76.5
2019-02-10T10:27:15.273Z,76.0
2019-02-10T10:28:15.548Z,76.2
2019-02-10T10:29:14.805Z,75.7
2019-02-10T10:30:15.071Z,76.5
2019-02-10T10:31:15.147Z,76.1
2019-02-10T10:32:15.404Z,76.3
2019-02-10T10:33:15.664Z,76.3
2019-02-10T10:34:14.934Z,76.3
2019-02-10T10:35:15.217Z,75.7
2019-02-10T10:36:15.479Z,75.7
2019-02-10T10:37:14.744Z,76.2
2019-02-10T10:38:15.046Z,75.8
2019-02-10T10:39:15.704Z,75.4
2019-02-10T10:40:14.981Z,75.8
2019-02-10T10:41:15.047Z,75.7
2019-02-10T10:42:15.310Z,75.8
2019-02-10T10:43:15.582Z,75.3
2019-02-10T10:44:14.851Z,75.5
2019-02-10T10:45:15.139Z,75.6
2019-02-10T10:46:15.427Z,75.4
2019-02-10T10:47:15.687Z,74.9
2019-02-10T10:48:14.951Z,74.7
2019-02-10T10:49:15.213Z,74.6
2019-02-10T10:50:15.489Z,74.3
2019-02-10T10:51:15.533Z,74.6
2019-02-10T10:52:14.806Z,74.5
2019-02-10T10:53:15.068Z,74.9
2019-02-10T10:54:15.339Z,74.6
2019-02-10T10:55:15.602Z,74.4
2019-02-10T10:56:14.866Z,74.2
2019-02-10T10:57:16.135Z,75.1
2019-02-10T10:58:15.404Z,75.5
2019-02-10T10:59:15.667Z,75.4
2019-02-10T11:00:14.951Z,75.1
2019-02-10T11:01:15.027Z,74.8
2019-02-10T11:02:15.290Z,75.2
2019-02-10T11:03:17.398Z,75.2
2019-02-10T11:04:15.692Z,75.0
2019-02-10T11:05:15.128Z,74.9
2019-02-10T11:06:15.418Z,75.2
2019-02-10T11:07:15.680Z,74.2
2019-02-10T11:08:14.948Z,74.2
2019-02-10T11:09:15.226Z,73.6
2019-02-10T11:10:15.497Z,73.5
2019-02-10T11:11:15.583Z,73.8
2019-02-10T11:12:14.854Z,73.8
2019-02-10T11:13:15.125Z,74.2
2019-02-10T11:14:15.381Z,73.8
2019-02-10T11:15:15.653Z,73.9
2019-02-10T11:16:14.929Z,73.3
2019-02-10T11:17:15.199Z,73.3
2019-02-10T11:18:15.463Z,73.6
2019-02-10T11:19:14.731Z,73.6
2019-02-10T11:20:15.010Z,72.8
2019-02-10T11:21:15.075Z,72.2
2019-02-10T11:22:15.343Z,72.0
2019-02-10T11:23:15.603Z,72.6
2019-02-10T11:24:14.877Z,72.5
2019-02-10T11:25:15.138Z,71.3
2019-02-10T11:26:15.402Z,71.0
2019-02-10T11:27:15.676Z,70.9
2019-02-10T11:28:14.939Z,71.5
2019-02-10T11:29:15.204Z,69.9
2019-02-10T11:30:15.489Z,70.4
2019-02-10T11:31:15.557Z,70.8
2019-02-10T11:32:14.819Z,69.8
2019-02-10T11:33:15.128Z,69.8
2019-02-10T11:34:15.395Z,70.4
2019-02-10T11:35:15.660Z,69.6
2019-02-10T11:36:14.925Z,69.6
2019-02-10T11:37:15.188Z,69.0
2019-02-10T11:38:15.461Z,68.5
2019-02-10T11:39:14.725Z,67.9
2019-02-10T11:40:15.005Z,68.4
2019-02-10T11:41:15.043Z,68.7
2019-02-10T11:42:15.304Z,68.9
2019-02-10T11:43:15.575Z,69.2
2019-02-10T11:44:14.832Z,68.5
2019-02-10T11:45:15.117Z,68.2
2019-02-10T11:46:15.387Z,68.2
2019-02-10T11:47:15.683Z,67.5
2019-02-10T11:48:14.958Z,67.1
2019-02-10T11:49:15.236Z,67.2
2019-02-10T11:50:15.529Z,68.2
2019-02-10T11:51:15.580Z,67.9
2019-02-10T11:52:14.857Z,67.8
2019-02-10T11:53:15.124Z,67.1
2019-02-10T11:54:15.389Z,66.8
2019-02-10T11:55:15.661Z,65.8
2019-02-10T11:56:14.932Z,65.7
2019-02-10T11:57:15.205Z,66.2
2019-02-10T11:58:15.477Z,66.3
2019-02-10T11:59:14.751Z,66.2
2019-02-10T12:00:15.045Z,66.7
2019-02-10T12:01:15.106Z,65.2
2019-02-10T12:02:15.379Z,65.2
2019-02-10T12:03:15.662Z,64.5
2019-02-10T12:04:14.926Z,65.5
2019-02-10T12:05:15.194Z,64.9
2019-02-10T12:06:15.460Z,64.3
2019-02-10T12:07:14.732Z,64.7
2019-02-10T12:08:14.991Z,64.5
2019-02-10T12:09:15.257Z,62.3
2019-02-10T12:10:15.536Z,61.0
2019-02-10T12:11:15.613Z,61.3
2019-02-10T12:12:14.881Z,62.1
2019-02-10T12:13:15.138Z,60.4
2019-02-10T12:14:15.397Z,61.2
2019-02-10T12:15:15.661Z,60.2
2019-02-10T12:16:14.915Z,61.2
2019-02-10T12:17:15.173Z,61.6
2019-02-10T12:18:15.447Z,60.8
2019-02-10T12:19:14.713Z,60.4
2019-02-10T12:20:14.985Z,61.0
2019-02-10T12:21:15.039Z,60.8
2019-02-10T12:22:15.357Z,61.0
2019-02-10T12:23:15.635Z,60.4
2019-02-10T12:24:14.904Z,60.5
2019-02-10T12:25:15.164Z,60.4
2019-02-10T12:26:15.435Z,59.6
2019-02-10T12:27:14.706Z,59.3
2019-02-10T12:28:14.979Z,59.7
2019-02-10T12:29:15.254Z,60.4
2019-02-10T12:30:15.553Z,60.3
2019-02-10T12:31:15.592Z,61.0
2019-02-10T12:32:14.853Z,60.8
2019-02-10T12:33:15.133Z,60.1
2019-02-10T12:34:15.398Z,59.2
2019-02-10T12:35:15.673Z,58.5
2019-02-10T12:36:14.936Z,58.0
2019-02-10T12:37:15.197Z,57.5
2019-02-10T12:38:15.463Z,57.5
2019-02-10T12:39:14.739Z,58.4
2019-02-10T12:40:15.016Z,58.3
2019-02-10T12:41:15.088Z,57.5
2019-02-10T12:42:15.351Z,57.2
2019-02-10T12:43:15.616Z,58.0
2019-02-10T12:44:14.887Z,57.8
2019-02-10T12:45:15.155Z,56.5
2019-02-10T12:46:15.425Z,57.6
2019-02-10T12:47:15.704Z,58.0
2019-02-10T12:48:14.960Z,57.0
2019-02-10T12:49:15.220Z,56.5
2019-02-10T12:50:15.502Z,55.7
2019-02-10T12:51:15.553Z,56.0
2019-02-10T12:52:14.821Z,56.0
2019-02-10T12:53:15.111Z,56.0
2019-02-10T12:54:15.378Z,56.1
2019-02-10T12:55:15.673Z,56.3
2019-02-10T12:56:14.938Z,56.8
2019-02-10T12:57:15.212Z,57.3
2019-02-10T12:58:15.484Z,56.6
2019-02-10T12:59:14.745Z,56.8
2019-02-10T13:00:15.009Z,58.2
2019-02-10T13:01:15.095Z,58.7
2019-02-10T13:02:15.351Z,56.9
2019-02-10T13:03:15.615Z,57.5
2019-02-10T13:04:14.869Z,57.4
2019-02-10T13:05:15.144Z,57.3
2019-02-10T13:06:15.422Z,57.8
2019-02-10T13:07:15.698Z,57.0
2019-02-10T13:08:14.959Z,56.6
2019-02-10T13:09:15.267Z,56.6
2019-02-10T13:10:18.411Z,57.7
2019-02-10T13:11:15.593Z,58.0
2019-02-10T13:12:14.847Z,58.5
2019-02-10T13:13:19.644Z,58.6
2019-02-10T13:14:14.957Z,57.7
2019-02-10T13:15:15.224Z,58.7
2019-02-10T13:16:15.484Z,59.5
2019-02-10T13:17:14.742Z,57.4
2019-02-10T13:18:15.022Z,57.8